createdAt,value
2022-09-06T00:01:47.377Z,23.67
2022-09-06T00:04:44.601Z,23.67
2022-09-06T00:07:41.977Z,23.43
2022-09-06T00:10:39.621Z,23.17
2022-09-06T00:13:36.729Z,23.08
2022-09-06T00:16:33.720Z,23.10
2022-09-06T00:19:31.187Z,23.03
2022-09-06T00:22:28.696Z,23.10
2022-09-06T00:25:26.246Z,23.18
2022-09-06T00:28:23.828Z,23.15
2022-09-06T00:31:23.489Z,23.02
2022-09-06T00:34:20.611Z,22.71
2022-09-06T00:37:17.403Z,22.80
2022-09-06T00:40:14.557Z,22.88
2022-09-06T00:43:11.161Z,22.94
2022-09-06T00:46:09.636Z,23.02
2022-09-06T00:49:12.668Z,23.01
2022-09-06T00:52:11.124Z,22.82
2022-09-06T00:55:09.147Z,22.77
2022-09-06T00:58:06.320Z,22.76
2022-09-06T01:01:03.536Z,22.70
2022-09-06T01:04:00.648Z,22.79
2022-09-06T01:07:25.825Z,22.92
2022-09-06T01:10:36.801Z,22.97
2022-09-06T01:13:55.046Z,23.01
2022-09-06T01:17:20.798Z,22.89
2022-09-06T01:20:52.178Z,22.93
2022-09-06T01:23:58.585Z,23.00
2022-09-06T01:27:14.536Z,23.15
2022-09-06T01:30:13.031Z,22.96
2022-09-06T01:33:12.506Z,22.87
2022-09-06T01:36:11.577Z,22.88
2022-09-06T01:39:11.827Z,22.73
2022-09-06T01:42:17.724Z,22.63
2022-09-06T01:45:17.920Z,22.60
2022-09-06T01:48:49.878Z,22.46
2022-09-06T01:52:13.113Z,22.64
2022-09-06T01:55:10.609Z,22.73
2022-09-06T01:58:32.101Z,22.71
2022-09-06T02:02:03.373Z,22.63
2022-09-06T02:05:06.374Z,22.53
2022-09-06T02:08:12.098Z,22.74
2022-09-06T02:11:09.701Z,22.75
2022-09-06T02:14:15.573Z,22.68
2022-09-06T02:17:13.458Z,22.67
2022-09-06T02:20:21.335Z,22.63
2022-09-06T02:23:19.641Z,22.60
2022-09-06T02:26:22.107Z,22.47
2022-09-06T02:29:19.857Z,22.55
2022-09-06T02:32:20.875Z,22.27
2022-09-06T02:35:17.517Z,22.31
2022-09-06T02:38:15.001Z,22.23
2022-09-06T02:41:13.326Z,22.21
2022-09-06T02:44:10.909Z,22.24
2022-09-06T02:47:07.681Z,22.13
2022-09-06T02:50:04.545Z,21.96
2022-09-06T02:53:09.708Z,21.81
2022-09-06T02:56:06.854Z,21.80
2022-09-06T02:59:05.528Z,21.83
2022-09-06T03:02:02.662Z,21.78
2022-09-06T03:04:59.672Z,21.92
2022-09-06T03:07:57.001Z,22.04
2022-09-06T03:10:56.279Z,21.82
2022-09-06T03:13:53.762Z,21.78
2022-09-06T03:16:50.883Z,21.87
2022-09-06T03:19:47.726Z,21.69
2022-09-06T03:22:44.891Z,21.72
2022-09-06T03:25:42.980Z,21.63
2022-09-06T03:28:40.860Z,21.56
2022-09-06T03:31:37.648Z,21.62
2022-09-06T03:34:34.770Z,21.50
2022-09-06T03:37:31.855Z,21.38
2022-09-06T03:40:28.782Z,21.38
2022-09-06T03:43:26.443Z,21.51
2022-09-06T03:46:24.156Z,21.66
2022-09-06T03:49:21.705Z,21.83
2022-09-06T03:52:18.694Z,21.66
2022-09-06T03:55:15.760Z,21.58
2022-09-06T03:58:12.870Z,21.53
2022-09-06T04:01:11.074Z,21.38
2022-09-06T04:04:08.705Z,21.26
2022-09-06T04:07:06.085Z,21.48
2022-09-06T04:10:04.088Z,21.56
2022-09-06T04:13:01.714Z,21.57
2022-09-06T04:15:58.805Z,21.49
2022-09-06T04:18:55.716Z,21.46
2022-09-06T04:21:53.056Z,21.42
2022-09-06T04:24:50.829Z,21.33
2022-09-06T04:27:47.797Z,21.18
2022-09-06T04:30:45.982Z,21.22
2022-09-06T04:33:42.910Z,21.27
2022-09-06T04:36:40.119Z,21.19
2022-09-06T04:39:37.721Z,21.19
2022-09-06T04:42:34.899Z,21.17
2022-09-06T04:45:32.103Z,21.09
2022-09-06T04:48:29.754Z,21.11
2022-09-06T04:51:26.482Z,21.14
2022-09-06T04:54:23.723Z,20.90
2022-09-06T04:57:20.653Z,20.94
2022-09-06T05:00:18.051Z,21.01
2022-09-06T05:03:15.671Z,21.13
2022-09-06T05:06:23.611Z,21.03
2022-09-06T05:09:20.587Z,21.15
2022-09-06T05:12:17.789Z,20.92
2022-09-06T05:15:14.835Z,20.83
2022-09-06T05:18:15.960Z,21.01
2022-09-06T05:21:14.461Z,21.16
2022-09-06T05:24:12.422Z,21.24
2022-09-06T05:27:09.879Z,21.23
2022-09-06T05:30:07.323Z,21.29
2022-09-06T05:33:04.826Z,21.35
2022-09-06T05:36:02.558Z,21.29
2022-09-06T05:38:59.737Z,21.26
2022-09-06T05:41:56.886Z,21.17
2022-09-06T05:44:53.560Z,21.33
2022-09-06T05:47:50.609Z,21.46
2022-09-06T05:50:47.911Z,21.32
2022-09-06T05:53:48.105Z,21.16
2022-09-06T05:56:45.877Z,21.28
2022-09-06T05:59:42.955Z,21.22
2022-09-06T06:02:40.585Z,21.15
2022-09-06T06:05:37.703Z,20.92
2022-09-06T06:08:36.007Z,20.76
2022-09-06T06:11:33.606Z,20.84
2022-09-06T06:14:30.662Z,20.88
2022-09-06T06:17:27.861Z,20.89
2022-09-06T06:20:25.470Z,20.85
2022-09-06T06:23:22.895Z,20.99
2022-09-06T06:26:20.077Z,21.02
2022-09-06T06:29:16.752Z,21.21
2022-09-06T06:32:13.555Z,21.38
2022-09-06T06:35:11.103Z,21.61
2022-09-06T06:38:07.346Z,21.71
2022-09-06T06:41:06.987Z,21.81
2022-09-06T06:44:05.518Z,21.87
2022-09-06T06:47:02.822Z,22.35
2022-09-06T06:49:59.627Z,22.39
2022-09-06T06:52:56.505Z,22.22
2022-09-06T06:55:54.204Z,22.02
2022-09-06T06:58:53.890Z,21.90
2022-09-06T07:01:51.106Z,21.93
2022-09-06T07:04:48.890Z,22.04
2022-09-06T07:07:46.188Z,22.24
2022-09-06T07:10:43.690Z,22.35
2022-09-06T07:13:41.539Z,22.01
2022-09-06T07:16:38.950Z,21.65
2022-09-06T07:26:21.295Z,21.93
2022-09-06T07:29:19.298Z,22.07
2022-09-06T07:32:16.603Z,22.04
2022-09-06T07:35:14.207Z,21.81
2022-09-06T07:38:12.019Z,21.71
2022-09-06T07:41:12.198Z,21.75
2022-09-06T07:44:10.410Z,21.92
2022-09-06T07:53:44.842Z,21.58
2022-09-06T07:56:42.027Z,21.78
2022-09-06T07:59:42.907Z,21.90
2022-09-06T08:02:41.014Z,22.14
2022-09-06T08:11:57.567Z,21.59
2022-09-06T08:14:55.387Z,21.61
2022-09-06T08:17:53.015Z,21.63
2022-09-06T08:20:49.672Z,21.79
2022-09-06T08:23:48.379Z,21.98
2022-09-06T08:26:45.892Z,22.20
2022-09-06T08:29:42.896Z,22.30
2022-09-06T08:32:41.340Z,22.74
2022-09-06T08:35:39.061Z,22.86
2022-09-06T08:38:36.158Z,23.09
2022-09-06T08:41:51.974Z,23.40
2022-09-06T08:47:52.480Z,23.51
2022-09-06T08:51:10.663Z,23.49
2022-09-06T08:54:42.606Z,23.70
2022-09-06T08:58:07.478Z,24.04
2022-09-06T09:01:13.589Z,24.33
2022-09-06T09:04:14.027Z,24.28
2022-09-06T09:07:26.523Z,24.07
2022-09-06T09:10:29.281Z,24.21
2022-09-06T09:13:35.505Z,24.37
2022-09-06T09:16:32.858Z,24.21
2022-09-06T09:19:33.575Z,24.41
2022-09-06T09:22:30.770Z,24.57
2022-09-06T09:25:27.899Z,24.36
2022-09-06T09:28:25.631Z,24.70
2022-09-06T09:31:34.610Z,24.84
2022-09-06T09:34:35.840Z,24.88
2022-09-06T09:37:49.694Z,25.01
2022-09-06T09:40:52.337Z,25.23
2022-09-06T09:44:10.345Z,25.48
2022-09-06T09:47:23.963Z,25.58
2022-09-06T09:50:33.977Z,25.96
2022-09-06T09:53:30.623Z,25.84
2022-09-06T09:56:47.820Z,26.01
2022-09-06T10:00:10.956Z,26.04
2022-09-06T10:03:18.975Z,25.91
2022-09-06T10:09:37.583Z,25.84
2022-09-06T10:12:39.317Z,25.98
2022-09-06T10:15:38.383Z,25.99
2022-09-06T10:18:45.117Z,25.52
2022-09-06T10:21:43.386Z,25.64
2022-09-06T10:24:59.502Z,26.13
2022-09-06T10:28:15.451Z,26.68
2022-09-06T10:31:36.898Z,27.06
2022-09-06T10:35:11.758Z,27.26
2022-09-06T10:38:27.838Z,27.36
2022-09-06T10:41:39.730Z,27.29
2022-09-06T10:44:53.079Z,26.99
2022-09-06T10:47:57.205Z,26.79
2022-09-06T10:50:55.290Z,27.00
2022-09-06T10:54:11.935Z,27.14
2022-09-06T11:00:46.810Z,27.17
2022-09-06T11:04:04.144Z,27.07
2022-09-06T11:07:04.251Z,27.05
2022-09-06T11:10:10.247Z,27.19
2022-09-06T11:13:10.848Z,27.51
2022-09-06T11:16:19.401Z,27.68
2022-09-06T11:19:22.692Z,27.76
2022-09-06T11:22:33.287Z,27.94
2022-09-06T11:25:48.811Z,27.72
2022-09-06T11:29:10.706Z,27.43
2022-09-06T11:32:30.152Z,27.64
2022-09-06T11:35:33.142Z,27.90
2022-09-06T11:38:29.977Z,28.07
2022-09-06T11:41:38.356Z,28.15
2022-09-06T11:44:57.409Z,28.31
2022-09-06T11:47:56.061Z,28.41
2022-09-06T11:50:58.973Z,28.25
2022-09-06T11:53:59.358Z,28.51
2022-09-06T11:57:00.383Z,28.48
2022-09-06T12:00:01.066Z,28.40
2022-09-06T12:06:37.679Z,28.68
2022-09-06T12:09:38.459Z,28.69
2022-09-06T12:12:43.377Z,28.84
2022-09-06T12:15:52.878Z,28.57
2022-09-06T12:18:49.736Z,28.10
2022-09-06T12:21:47.822Z,28.25
2022-09-06T12:24:44.962Z,28.18
2022-09-06T12:27:50.783Z,28.40
2022-09-06T12:30:48.170Z,28.42
2022-09-06T12:33:47.145Z,28.56
2022-09-06T12:36:56.936Z,28.51
2022-09-06T12:39:58.735Z,28.44
2022-09-06T12:42:56.036Z,28.54
2022-09-06T12:45:53.277Z,28.53
2022-09-06T12:49:20.107Z,28.71
2022-09-06T12:52:19.421Z,28.89
2022-09-06T12:55:38.514Z,29.19
2022-09-06T12:58:36.712Z,29.17
2022-09-06T13:01:34.602Z,29.04
2022-09-06T13:04:41.811Z,29.27
2022-09-06T13:07:41.621Z,29.19
2022-09-06T13:10:40.607Z,29.12
2022-09-06T13:13:44.582Z,29.12
2022-09-06T13:16:50.520Z,29.07
2022-09-06T13:19:49.701Z,28.83
2022-09-06T13:22:49.396Z,29.12
2022-09-06T13:25:51.677Z,29.41
2022-09-06T13:28:49.248Z,29.48
2022-09-06T13:31:47.605Z,29.49
2022-09-06T13:34:49.739Z,29.37
2022-09-06T13:37:49.524Z,29.23
2022-09-06T13:41:10.510Z,29.42
2022-09-06T13:44:17.162Z,29.48
2022-09-06T13:47:13.828Z,29.49
2022-09-06T13:50:11.242Z,29.43
2022-09-06T13:53:08.727Z,29.48
2022-09-06T13:56:08.816Z,29.44
2022-09-06T13:59:06.678Z,29.57
2022-09-06T14:02:05.766Z,29.69
2022-09-06T14:05:02.967Z,29.87
2022-09-06T14:08:00.118Z,29.68
2022-09-06T14:11:01.052Z,29.31
2022-09-06T14:14:03.801Z,29.57
2022-09-06T14:17:01.514Z,29.60
2022-09-06T14:19:59.336Z,29.56
2022-09-06T14:22:56.148Z,29.42
2022-09-06T14:25:56.734Z,29.40
2022-09-06T14:28:54.924Z,29.56
2022-09-06T14:31:52.317Z,29.68
2022-09-06T14:34:49.317Z,29.74
2022-09-06T14:37:46.190Z,29.71
2022-09-06T14:40:46.038Z,30.03
2022-09-06T14:43:43.717Z,30.14
2022-09-06T14:46:41.306Z,29.90
2022-09-06T14:49:41.274Z,30.26
2022-09-06T14:52:38.386Z,30.26
2022-09-06T14:55:39.161Z,30.26
2022-09-06T14:58:37.601Z,30.48
2022-09-06T15:01:38.656Z,30.28
2022-09-06T15:04:38.478Z,30.15
2022-09-06T15:07:35.557Z,29.93
2022-09-06T15:10:33.984Z,29.78
2022-09-06T15:13:31.468Z,30.04
2022-09-06T15:16:29.026Z,29.96
2022-09-06T15:19:27.308Z,29.56
2022-09-06T15:22:24.417Z,29.61
2022-09-06T15:25:21.463Z,29.84
2022-09-06T15:28:19.537Z,29.69
2022-09-06T15:31:19.727Z,29.65
2022-09-06T15:34:18.437Z,29.73
2022-09-06T15:37:17.590Z,29.84
2022-09-06T15:40:15.597Z,29.82
2022-09-06T15:43:13.453Z,29.91
2022-09-06T15:46:10.636Z,29.78
2022-09-06T15:49:09.339Z,29.48
2022-09-06T15:52:07.980Z,29.40
2022-09-06T15:55:24.374Z,29.59
2022-09-06T15:58:20.920Z,29.29
2022-09-06T16:01:20.133Z,29.26
2022-09-06T16:04:17.643Z,29.05
2022-09-06T16:07:15.331Z,28.87
2022-09-06T16:10:12.962Z,28.99
2022-09-06T16:13:10.048Z,29.01
2022-09-06T16:16:08.995Z,29.06
2022-09-06T16:19:06.687Z,28.89
2022-09-06T16:22:05.085Z,28.92
2022-09-06T16:25:02.540Z,28.88
2022-09-06T16:28:00.591Z,28.78
2022-09-06T16:31:05.572Z,28.51
2022-09-06T16:34:03.398Z,28.44
2022-09-06T16:37:00.717Z,28.38
2022-09-06T16:39:58.520Z,28.58
2022-09-06T16:42:55.870Z,28.52
2022-09-06T16:45:59.527Z,28.53
2022-09-06T16:48:59.535Z,28.44
2022-09-06T16:51:56.995Z,28.17
2022-09-06T16:54:54.684Z,28.24
2022-09-06T16:57:52.574Z,28.27
2022-09-06T17:00:49.659Z,28.28
2022-09-06T17:03:47.591Z,28.25
2022-09-06T17:06:45.218Z,28.15
2022-09-06T17:09:42.644Z,28.16
2022-09-06T17:12:39.750Z,28.04
2022-09-06T17:15:55.800Z,27.91
2022-09-06T17:18:53.791Z,27.82
2022-09-06T17:21:51.149Z,27.80
2022-09-06T17:24:48.470Z,27.70
2022-09-06T17:27:45.384Z,27.75
2022-09-06T17:30:42.516Z,27.72
2022-09-06T17:33:39.715Z,27.68
2022-09-06T17:36:37.723Z,27.42
2022-09-06T17:39:35.775Z,27.21
2022-09-06T17:42:33.785Z,27.13
2022-09-06T17:45:42.668Z,27.20
2022-09-06T17:48:40.272Z,27.18
2022-09-06T17:51:38.107Z,27.24
2022-09-06T17:54:35.241Z,27.51
2022-09-06T17:57:32.421Z,27.53
2022-09-06T18:00:29.932Z,27.39
2022-09-06T18:03:27.591Z,27.18
2022-09-06T18:06:25.406Z,27.19
2022-09-06T18:09:22.464Z,27.13
2022-09-06T18:12:20.283Z,27.23
2022-09-06T18:15:17.474Z,27.07
2022-09-06T18:18:14.321Z,27.02
2022-09-06T18:21:11.536Z,27.05
2022-09-06T18:24:09.402Z,26.86
2022-09-06T18:27:06.741Z,26.65
2022-09-06T18:30:04.810Z,26.71
2022-09-06T18:33:02.506Z,26.65
2022-09-06T18:35:59.615Z,26.38
2022-09-06T18:38:56.567Z,26.34
2022-09-06T18:42:07.149Z,26.24
2022-09-06T18:45:04.726Z,26.14
2022-09-06T18:48:01.506Z,26.09
2022-09-06T18:51:05.176Z,26.08
2022-09-06T18:54:02.696Z,26.08
2022-09-06T18:56:59.945Z,26.05
2022-09-06T18:59:57.293Z,26.03
2022-09-06T19:02:54.437Z,26.13
2022-09-06T19:05:51.556Z,26.25
2022-09-06T19:08:48.590Z,25.90
2022-09-06T19:11:49.238Z,25.60
2022-09-06T19:14:46.465Z,25.51
2022-09-06T19:17:43.579Z,25.44
2022-09-06T19:20:40.633Z,25.19
2022-09-06T19:23:39.692Z,25.01
2022-09-06T19:26:37.964Z,25.00
2022-09-06T19:29:35.946Z,24.59
2022-09-06T19:32:33.898Z,24.51
2022-09-06T19:35:31.554Z,24.57
2022-09-06T19:38:37.390Z,24.66
2022-09-06T19:41:46.630Z,24.66
2022-09-06T19:44:44.101Z,24.61
2022-09-06T19:47:41.626Z,24.54
2022-09-06T19:50:39.081Z,24.39
2022-09-06T19:53:37.689Z,24.19
2022-09-06T19:56:35.196Z,24.01
2022-09-06T19:59:36.110Z,23.87
2022-09-06T20:02:33.522Z,24.01
2022-09-06T20:05:30.781Z,24.05
2022-09-06T20:08:28.038Z,24.29
2022-09-06T20:11:27.740Z,24.09
2022-09-06T20:14:26.174Z,24.18
2022-09-06T20:17:33.728Z,24.29
2022-09-06T20:20:32.920Z,24.36
2022-09-06T20:23:30.923Z,24.45
2022-09-06T20:26:29.184Z,24.44
2022-09-06T20:29:26.511Z,24.40
2022-09-06T20:32:23.566Z,24.35
2022-09-06T20:35:20.353Z,24.40
2022-09-06T20:38:17.713Z,24.34
2022-09-06T20:41:19.381Z,24.08
2022-09-06T20:44:16.496Z,23.89
2022-09-06T20:47:14.358Z,23.78
2022-09-06T20:50:11.823Z,23.80
2022-09-06T20:53:10.050Z,23.64
2022-09-06T20:56:10.844Z,23.74
2022-09-06T20:59:09.493Z,23.56
2022-09-06T21:02:06.959Z,23.47
2022-09-06T21:05:05.641Z,23.17
2022-09-06T21:08:02.863Z,23.23
2022-09-06T21:11:01.341Z,23.19
2022-09-06T21:13:58.683Z,23.21
2022-09-06T21:16:56.136Z,23.00
2022-09-06T21:19:53.666Z,22.78
2022-09-06T21:22:50.921Z,22.74
2022-09-06T21:25:59.103Z,22.56
2022-09-06T21:28:56.832Z,22.49
2022-09-06T21:31:53.740Z,22.41
2022-09-06T21:34:50.945Z,22.52
2022-09-06T21:37:48.546Z,22.70
2022-09-06T21:40:45.527Z,22.79
2022-09-06T21:43:43.161Z,22.82
2022-09-06T21:46:40.816Z,22.78
2022-09-06T21:49:38.643Z,22.64
2022-09-06T21:52:35.467Z,22.53
2022-09-06T21:55:32.981Z,22.56
2022-09-06T21:58:31.082Z,22.35
2022-09-06T22:01:31.839Z,22.16
2022-09-06T22:04:29.417Z,22.08
2022-09-06T22:07:26.793Z,22.12
2022-09-06T22:10:24.180Z,22.07
2022-09-06T22:13:21.972Z,22.05
2022-09-06T22:16:21.918Z,22.06
2022-09-06T22:19:20.225Z,22.09
2022-09-06T22:22:17.954Z,22.23
2022-09-06T22:25:15.945Z,22.14
2022-09-06T22:28:12.402Z,21.96
2022-09-06T22:31:10.347Z,21.96
2022-09-06T22:34:07.703Z,22.18
2022-09-06T22:37:04.739Z,22.29
2022-09-06T22:40:02.227Z,22.08
2022-09-06T22:42:59.926Z,21.97
2022-09-06T22:46:08.858Z,21.99
2022-09-06T22:49:06.805Z,22.13
2022-09-06T22:52:03.914Z,22.13
2022-09-06T22:55:00.840Z,22.07
2022-09-06T22:57:58.127Z,22.10
2022-09-06T23:00:56.179Z,22.28
2022-09-06T23:03:53.885Z,22.30
2022-09-06T23:06:51.650Z,22.16
2022-09-06T23:09:48.722Z,22.01
2022-09-06T23:12:45.682Z,21.87
2022-09-06T23:15:46.168Z,21.77
2022-09-06T23:18:44.216Z,21.62
2022-09-06T23:21:41.860Z,21.67
2022-09-06T23:24:39.601Z,21.73
2022-09-06T23:27:36.912Z,21.73
2022-09-06T23:30:36.731Z,21.78
2022-09-06T23:33:35.909Z,21.91
2022-09-06T23:36:32.740Z,21.85
2022-09-06T23:39:29.761Z,21.86
2022-09-06T23:42:26.846Z,21.97
2022-09-06T23:45:23.892Z,22.11
2022-09-06T23:48:20.770Z,22.03
2022-09-06T23:51:17.912Z,21.80
2022-09-06T23:54:14.951Z,21.74
2022-09-06T23:57:11.710Z,21.67
